This is the latest recevied weather packets stored in our database for station/object IN3MWE-10. If no packets are shown the sender has not sent any weather packets the latest 10 day(s).
| Time | Temp. | Humidity | Pressure | Rain* | Wind** | Luminosity | Snow |
|---|---|---|---|---|---|---|---|
| 1787503821 | 26.67° C | 54% | 980.7 hPa | - | - | - | - |
| 1787502921 | 26.67° C | 50% | 980.8 hPa | - | - | - | - |
| 1787502020 | 27.22° C | 47% | 980.8 hPa | - | - | - | - |
| 1787501120 | 31.11° C | 36% | 980.6 hPa | - | - | - | - |
| 1787500220 | 32.78° C | 32% | 980.6 hPa | - | - | - | - |
| 1787499320 | 32.78° C | 30% | 980.7 hPa | - | - | - | - |
| 1787498420 | 33.89° C | 29% | 980.5 hPa | - | - | - | - |
| 1787497520 | 36.11° C | 26% | 980.4 hPa | - | - | - | - |
| 1787496620 | 35.56° C | 27% | 980.5 hPa | - | - | - | - |
| 1787495719 | 33.89° C | 28% | 980.6 hPa | - | - | - | - |
| 1787494819 | 35° C | 26% | 980.5 hPa | - | - | - | - |
| 1787493919 | 35° C | 27% | 980.5 hPa | - | - | - | - |
| 1787493019 | 32.22° C | 30% | 980.9 hPa | - | - | - | - |
| 1787492119 | 37.22° C | 23% | 980.9 hPa | - | - | - | - |
| 1787491219 | 36.67° C | 23% | 981 hPa | - | - | - | - |
| 1787490319 | 37.78° C | 22% | 981.1 hPa | - | - | - | - |
| 1787489418 | 33.33° C | 27% | 981.4 hPa | - | - | - | - |
| 1787488518 | 38.33° C | 22% | 981.6 hPa | - | - | - | - |
| 1787487618 | 35.56° C | 24% | 981.7 hPa | - | - | - | - |
| 1787486718 | 37.22° C | 22% | 981.7 hPa | - | - | - | - |
| 1787485818 | 37.22° C | 22% | 981.9 hPa | - | - | - | - |
| 1787484918 | 37.22° C | 23% | 982.1 hPa | - | - | - | - |
| 1787484018 | 36.67° C | 23% | 982.1 hPa | - | - | - | - |
| 1787483117 | 35.56° C | 24% | 982.5 hPa | - | - | - | - |
| 1787482217 | 34.44° C | 26% | 982.8 hPa | - | - | - | - |
* Rain since midnight (hover to see other rain measurements)
** Current wind speed in m/s (hover to see current wind gust speed)